Time;durP1;ratioP1;P1;durP2;ratioP2;P2;SDS_P1;SDS_P2;PMS_P1;PMS_P2;Temp;Humidity;BMP_temperature;BMP_pressure;BME280_temperature;BME280_humidity;BME280_pressure;Samples;Min_cycle;Max_cycle;Signal;HPM_P1;HPM_P2
2021/08/15 00:01:53;;;;;;;11.40;8.40;;;;;;;;;;5068227;28;20374;-82
2021/08/15 00:04:19;;;;;;;10.52;7.75;;;;;;;;;;5068280;28;20370;-83
2021/08/15 00:06:45;;;;;;;11.85;7.90;;;;;;;;;;5050413;28;20808;-83
2021/08/15 00:09:11;;;;;;;11.07;8.10;;;;;;;;;;5068046;28;20480;-83
2021/08/15 00:11:37;;;;;;;12.65;8.45;;;;;;;;;;5068327;28;20366;-82
2021/08/15 00:14:03;;;;;;;9.98;8.18;;;;;;;;;;5068272;28;20957;-83
2021/08/15 00:16:29;;;;;;;9.23;7.63;;;;;;;;;;5050079;28;20382;-84
2021/08/15 00:18:55;;;;;;;9.05;7.35;;;;;;;;;;5050019;28;20409;-84
2021/08/15 00:21:21;;;;;;;10.57;7.97;;;;;;;;;;5049812;28;20374;-84
2021/08/15 00:23:47;;;;;;;9.35;7.22;;;;;;;;;;5050106;28;20385;-83
2021/08/15 00:26:13;;;;;;;10.50;7.32;;;;;;;;;;5068101;28;20358;-84
2021/08/15 00:28:39;;;;;;;11.85;7.93;;;;;;;;;;5067932;28;20852;-83
2021/08/15 00:31:05;;;;;;;11.27;7.63;;;;;;;;;;5049879;28;20698;-83
2021/08/15 00:33:31;;;;;;;12.47;7.87;;;;;;;;;;5050187;28;20490;-83
2021/08/15 00:35:57;;;;;;;14.85;8.18;;;;;;;;;;5068045;28;21028;-83
2021/08/15 00:38:23;;;;;;;12.38;7.97;;;;;;;;;;5049525;28;20489;-84
2021/08/15 00:40:49;;;;;;;8.48;7.43;;;;;;;;;;5067452;28;20382;-83
2021/08/15 00:43:15;;;;;;;10.90;8.10;;;;;;;;;;5067967;28;20697;-83
2021/08/15 00:45:41;;;;;;;11.80;7.85;;;;;;;;;;5067862;28;20381;-84
2021/08/15 00:48:08;;;;;;;9.70;7.70;;;;;;;;;;5067699;28;20371;-83
2021/08/15 00:50:34;;;;;;;11.20;7.60;;;;;;;;;;5049960;28;20413;-83
2021/08/15 00:53:00;;;;;;;12.60;8.20;;;;;;;;;;5049902;28;20858;-83
2021/08/15 00:55:26;;;;;;;9.30;7.00;;;;;;;;;;5052845;28;20508;-82
2021/08/15 00:57:52;;;;;;;13.48;7.75;;;;;;;;;;5053573;28;20504;-83
2021/08/15 01:00:18;;;;;;;8.13;7.30;;;;;;;;;;5052980;28;20398;-82
2021/08/15 01:02:47;;;;;;;9.45;7.88;;;;;;;;;;5071345;28;20445;-84
2021/08/15 01:05:13;;;;;;;9.82;7.72;;;;;;;;;;5053313;28;20955;-84
2021/08/15 01:07:40;;;;;;;12.00;8.10;;;;;;;;;;5071044;28;20389;-85
2021/08/15 01:10:06;;;;;;;11.43;8.50;;;;;;;;;;5053238;28;20373;-84
2021/08/15 01:12:32;;;;;;;11.23;8.32;;;;;;;;;;5053007;28;20378;-83
2021/08/15 01:14:59;;;;;;;10.85;8.50;;;;;;;;;;5071011;28;20460;-83
2021/08/15 01:17:26;;;;;;;10.80;8.55;;;;;;;;;;5071132;28;20378;-83
2021/08/15 01:19:56;;;;;;;11.10;7.97;;;;;;;;;;5070869;28;20398;-83
2021/08/15 01:22:23;;;;;;;12.63;8.47;;;;;;;;;;5052607;28;20398;-84
2021/08/15 01:24:53;;;;;;;10.95;8.48;;;;;;;;;;5070961;28;20366;-83
2021/08/15 01:27:20;;;;;;;10.00;8.30;;;;;;;;;;5052643;28;20432;-83
2021/08/15 01:29:46;;;;;;;11.45;8.73;;;;;;;;;;5070676;28;20369;-83
2021/08/15 01:32:13;;;;;;;10.38;8.35;;;;;;;;;;5070571;28;20366;-83
2021/08/15 01:34:39;;;;;;;11.48;8.40;;;;;;;;;;5070511;28;20412;-83
2021/08/15 01:37:07;;;;;;;10.27;8.35;;;;;;;;;;5052553;28;20899;-84
2021/08/15 01:39:33;;;;;;;11.50;8.23;;;;;;;;;;5070007;28;20414;-84
2021/08/15 01:41:59;;;;;;;11.82;8.27;;;;;;;;;;5052579;28;20386;-84
2021/08/15 01:44:25;;;;;;;12.07;8.53;;;;;;;;;;5052312;28;20468;-83
2021/08/15 01:46:51;;;;;;;11.33;8.50;;;;;;;;;;5052396;28;20453;-84
2021/08/15 01:49:17;;;;;;;10.47;8.47;;;;;;;;;;5069946;28;20421;-83
2021/08/15 01:51:43;;;;;;;10.00;8.00;;;;;;;;;;5070568;28;20380;-83
2021/08/15 01:54:09;;;;;;;11.88;8.23;;;;;;;;;;5070248;28;20440;-83
2021/08/15 01:56:35;;;;;;;10.85;7.97;;;;;;;;;;5070572;28;20370;-84
2021/08/15 01:59:00;;;;;;;11.57;8.38;;;;;;;;;;5069891;28;20425;-82
2021/08/15 02:01:26;;;;;;;11.93;8.70;;;;;;;;;;5070198;28;20377;-83
2021/08/15 02:03:53;;;;;;;15.02;8.65;;;;;;;;;;5052169;28;21533;-83
2021/08/15 02:06:19;;;;;;;13.02;8.18;;;;;;;;;;5069797;28;20373;-83
2021/08/15 02:08:46;;;;;;;12.82;8.57;;;;;;;;;;5070112;28;20447;-84
2021/08/15 02:11:12;;;;;;;11.55;9.05;;;;;;;;;;5070032;28;20366;-83
2021/08/15 02:13:38;;;;;;;11.20;8.30;;;;;;;;;;5051813;28;20362;-83
2021/08/15 02:16:04;;;;;;;10.93;8.25;;;;;;;;;;5069946;28;20447;-83
2021/08/15 02:18:30;;;;;;;11.35;8.70;;;;;;;;;;5069307;28;20413;-84
2021/08/15 02:20:56;;;;;;;11.20;8.88;;;;;;;;;;5069642;28;20859;-83
2021/08/15 02:23:22;;;;;;;9.52;7.95;;;;;;;;;;5069490;28;20370;-83
2021/08/15 02:25:48;;;;;;;10.40;8.35;;;;;;;;;;5069679;28;20378;-83
2021/08/15 02:28:13;;;;;;;10.15;8.60;;;;;;;;;;5069463;28;20401;-83
2021/08/15 02:30:39;;;;;;;11.38;8.65;;;;;;;;;;5069380;28;20362;-84
2021/08/15 02:33:05;;;;;;;10.18;8.27;;;;;;;;;;5069261;28;20848;-83
2021/08/15 02:35:31;;;;;;;10.52;8.07;;;;;;;;;;5069612;28;20370;-83
2021/08/15 02:37:58;;;;;;;11.02;8.75;;;;;;;;;;5051624;28;20367;-83
2021/08/15 02:40:24;;;;;;;11.07;8.57;;;;;;;;;;5079715;28;20415;-84
2021/08/15 02:42:50;;;;;;;13.18;9.10;;;;;;;;;;5089443;28;20388;-83
2021/08/15 02:45:17;;;;;;;9.82;8.32;;;;;;;;;;5071448;28;20493;-83
2021/08/15 02:47:44;;;;;;;11.85;8.85;;;;;;;;;;5089566;28;20399;-83
2021/08/15 02:50:10;;;;;;;9.88;8.23;;;;;;;;;;5089383;28;20368;-84
2021/08/15 02:52:37;;;;;;;10.43;8.30;;;;;;;;;;5089489;28;20438;-83
2021/08/15 02:55:04;;;;;;;12.57;8.68;;;;;;;;;;5089444;28;20368;-83
2021/08/15 02:57:30;;;;;;;9.48;8.52;;;;;;;;;;5089487;28;20365;-84
2021/08/15 02:59:56;;;;;;;11.30;9.15;;;;;;;;;;5089120;28;20745;-83
2021/08/15 03:02:22;;;;;;;10.68;8.68;;;;;;;;;;5071103;28;20424;-84
2021/08/15 03:04:49;;;;;;;10.40;8.38;;;;;;;;;;5089276;28;20368;-84
2021/08/15 03:07:16;;;;;;;12.32;9.50;;;;;;;;;;5089194;28;20368;-83
2021/08/15 03:09:42;;;;;;;11.30;9.45;;;;;;;;;;5089297;28;20372;-84
2021/08/15 03:12:08;;;;;;;12.82;9.63;;;;;;;;;;5089159;28;20372;-83
2021/08/15 03:14:34;;;;;;;13.50;9.45;;;;;;;;;;5070730;28;20371;-83
2021/08/15 03:17:00;;;;;;;11.07;8.95;;;;;;;;;;5069850;28;20372;-84
2021/08/15 03:19:26;;;;;;;12.90;9.20;;;;;;;;;;5088952;28;20861;-84
2021/08/15 03:21:52;;;;;;;13.13;9.40;;;;;;;;;;5070899;28;20519;-84
2021/08/15 03:24:18;;;;;;;11.38;9.20;;;;;;;;;;5070786;28;20361;-84
2021/08/15 03:26:45;;;;;;;12.43;9.70;;;;;;;;;;5088824;28;20861;-83
2021/08/15 03:29:14;;;;;;;10.23;8.95;;;;;;;;;;5071979;28;20387;-83
2021/08/15 03:31:41;;;;;;;11.30;9.45;;;;;;;;;;5070803;28;20896;-83
2021/08/15 03:34:07;;;;;;;10.63;9.20;;;;;;;;;;5070752;28;20394;-83
2021/08/15 03:36:33;;;;;;;10.52;8.77;;;;;;;;;;5088668;28;20458;-84
2021/08/15 03:38:59;;;;;;;10.77;9.37;;;;;;;;;;5088523;28;20422;-84
2021/08/15 03:41:25;;;;;;;12.77;9.33;;;;;;;;;;5088761;28;20387;-84
2021/08/15 03:43:51;;;;;;;12.43;9.93;;;;;;;;;;5088698;28;20368;-83
2021/08/15 03:46:18;;;;;;;9.38;8.38;;;;;;;;;;5088593;28;20386;-84
2021/08/15 03:48:43;;;;;;;11.52;9.95;;;;;;;;;;5088638;28;20372;-84
2021/08/15 03:51:10;;;;;;;15.40;9.38;;;;;;;;;;5088402;28;20438;-84
2021/08/15 03:53:36;;;;;;;9.90;9.00;;;;;;;;;;5070524;28;20377;-84
2021/08/15 03:56:02;;;;;;;10.57;9.50;;;;;;;;;;5088625;28;20368;-83
2021/08/15 03:58:28;;;;;;;11.03;8.87;;;;;;;;;;5088599;28;20465;-84
2021/08/15 04:00:55;;;;;;;9.40;8.50;;;;;;;;;;5088997;28;20375;-84
2021/08/15 04:03:21;;;;;;;10.82;9.40;;;;;;;;;;5070333;28;20373;-84
2021/08/15 04:05:47;;;;;;;11.95;8.80;;;;;;;;;;5088502;28;20372;-84
2021/08/15 04:08:13;;;;;;;11.18;8.60;;;;;;;;;;5088379;28;20369;-82
2021/08/15 04:10:39;;;;;;;10.25;8.95;;;;;;;;;;5070371;28;20376;-83
2021/08/15 04:13:05;;;;;;;9.48;8.50;;;;;;;;;;5088492;28;20444;-85
2021/08/15 04:15:31;;;;;;;11.95;8.95;;;;;;;;;;5070598;28;20854;-84
2021/08/15 04:17:57;;;;;;;10.18;8.15;;;;;;;;;;5088610;28;20372;-85
2021/08/15 04:20:23;;;;;;;9.95;8.90;;;;;;;;;;5070040;28;20396;-83
2021/08/15 04:22:49;;;;;;;10.43;8.27;;;;;;;;;;5088466;28;20363;-85
2021/08/15 04:25:15;;;;;;;11.03;9.17;;;;;;;;;;5070145;28;20364;-84
2021/08/15 04:27:41;;;;;;;9.90;8.63;;;;;;;;;;5087308;28;20376;-84
2021/08/15 04:30:08;;;;;;;11.07;8.93;;;;;;;;;;5080254;28;20776;-84
2021/08/15 04:32:34;;;;;;;10.10;8.35;;;;;;;;;;5060208;28;20375;-84
2021/08/15 04:35:00;;;;;;;10.23;8.75;;;;;;;;;;5078746;28;20730;-81
2021/08/15 04:37:27;;;;;;;10.23;8.40;;;;;;;;;;5079060;28;20405;-84
2021/08/15 04:39:53;;;;;;;11.90;8.60;;;;;;;;;;5079114;28;20429;-84
2021/08/15 04:42:19;;;;;;;10.18;8.35;;;;;;;;;;5059891;28;20835;-83
2021/08/15 04:44:45;;;;;;;10.45;8.25;;;;;;;;;;5079605;28;20864;-83
2021/08/15 04:47:11;;;;;;;12.90;8.37;;;;;;;;;;5078996;28;20378;-82
2021/08/15 04:49:38;;;;;;;10.90;9.03;;;;;;;;;;5079566;28;20458;-84
2021/08/15 04:52:05;;;;;;;10.50;8.73;;;;;;;;;;5059793;28;20390;-83
2021/08/15 04:54:31;;;;;;;11.70;8.82;;;;;;;;;;5059277;28;20382;-83
2021/08/15 04:56:58;;;;;;;14.20;10.38;;;;;;;;;;5058908;28;20386;-83
2021/08/15 04:59:25;;;;;;;13.95;10.30;;;;;;;;;;5059337;28;20416;-83
2021/08/15 05:01:51;;;;;;;11.30;8.55;;;;;;;;;;5098471;28;20362;-83
2021/08/15 05:04:17;;;;;;;10.77;9.23;;;;;;;;;;5077685;28;20465;-83
2021/08/15 05:06:43;;;;;;;11.82;8.27;;;;;;;;;;5077526;28;20469;-83
2021/08/15 05:09:11;;;;;;;13.80;8.88;;;;;;;;;;5058624;28;20848;-82
2021/08/15 05:11:37;;;;;;;11.18;8.27;;;;;;;;;;5060440;28;20862;-82
2021/08/15 05:14:03;;;;;;;10.30;7.68;;;;;;;;;;5060344;28;20858;-83
2021/08/15 05:16:29;;;;;;;11.30;8.43;;;;;;;;;;5078490;28;20365;-82
2021/08/15 05:18:55;;;;;;;11.70;8.43;;;;;;;;;;5079385;28;20501;-82
2021/08/15 05:21:21;;;;;;;12.23;8.40;;;;;;;;;;5077865;28;20386;-83
2021/08/15 05:23:47;;;;;;;9.80;7.40;;;;;;;;;;5077926;28;20418;-83
2021/08/15 05:26:13;;;;;;;40.75;10.50;;;;;;;;;;5059764;28;20385;-83
2021/08/15 05:28:39;;;;;;;26.92;8.93;;;;;;;;;;5058253;28;20385;-82
2021/08/15 05:31:05;;;;;;;48.45;11.45;;;;;;;;;;5078351;28;20453;-83
2021/08/15 05:33:31;;;;;;;26.05;9.05;;;;;;;;;;5059945;28;20822;-83
2021/08/15 05:35:57;;;;;;;16.60;8.68;;;;;;;;;;5078902;28;20409;-83
2021/08/15 05:38:24;;;;;;;15.57;8.35;;;;;;;;;;5061010;28;20510;-84
2021/08/15 05:40:50;;;;;;;13.05;8.15;;;;;;;;;;5060803;28;20796;-82
2021/08/15 05:43:16;;;;;;;14.18;8.50;;;;;;;;;;5071670;28;20392;-83
2021/08/15 05:45:42;;;;;;;14.07;7.97;;;;;;;;;;5089797;28;20384;-82
2021/08/15 05:48:08;;;;;;;15.68;7.53;;;;;;;;;;5088111;28;20441;-84
2021/08/15 05:50:34;;;;;;;14.03;7.70;;;;;;;;;;5070402;28;20796;-82
2021/08/15 05:53:00;;;;;;;10.75;7.10;;;;;;;;;;5089690;28;20522;-83
2021/08/15 05:55:26;;;;;;;13.57;7.47;;;;;;;;;;5090486;28;20447;-84
2021/08/15 05:57:52;;;;;;;11.45;7.13;;;;;;;;;;5084393;28;20388;-85
2021/08/15 06:00:18;;;;;;;9.73;6.57;;;;;;;;;;5089462;28;20408;-84
2021/08/15 06:02:48;;;;;;;12.35;6.95;;;;;;;;;;5089796;28;20373;-86
2021/08/15 06:05:14;;;;;;;14.02;7.07;;;;;;;;;;5066920;28;20462;-83
2021/08/15 06:07:40;;;;;;;13.18;6.85;;;;;;;;;;5066045;28;20384;-83
2021/08/15 06:10:07;;;;;;;13.90;7.30;;;;;;;;;;5066850;28;20470;-85
2021/08/15 06:12:35;;;;;;;11.73;6.15;;;;;;;;;;5087417;28;20402;-83
2021/08/15 06:15:17;;;;;;;11.50;6.57;;;;;;;;;;5090898;28;20416;-86
2021/08/15 06:17:44;;;;;;;11.73;6.63;;;;;;;;;;5080254;28;20451;-81
2021/08/15 06:20:11;;;;;;;12.60;6.20;;;;;;;;;;5058650;28;20894;-85
2021/08/15 06:22:43;;;;;;;11.38;6.50;;;;;;;;;;5059351;28;20449;-86
2021/08/15 06:25:09;;;;;;;11.32;6.07;;;;;;;;;;5059082;28;20413;-85
2021/08/15 06:27:42;;;;;;;12.13;5.83;;;;;;;;;;5059613;28;20381;-87
2021/08/15 06:30:09;;;;;;;14.70;6.23;;;;;;;;;;5077878;28;20384;-84
2021/08/15 06:32:43;;;;;;;12.10;5.85;;;;;;;;;;5059155;28;20379;-86
2021/08/15 06:35:10;;;;;;;14.05;5.97;;;;;;;;;;5074354;28;20356;-86
2021/08/15 06:37:36;;;;;;;13.63;6.28;;;;;;;;;;5073835;28;20380;-85
2021/08/15 06:40:02;;;;;;;14.55;6.18;;;;;;;;;;5072034;28;20451;-85
2021/08/15 06:42:28;;;;;;;12.73;6.03;;;;;;;;;;5089728;28;20420;-87
2021/08/15 06:44:54;;;;;;;11.90;5.93;;;;;;;;;;5089893;28;20400;-85
2021/08/15 06:47:19;;;;;;;11.82;6.25;;;;;;;;;;5090040;28;20365;-85
2021/08/15 06:49:45;;;;;;;13.00;6.13;;;;;;;;;;5089892;28;20792;-86
2021/08/15 06:52:11;;;;;;;13.05;6.03;;;;;;;;;;5070081;28;20384;-86
2021/08/15 06:54:37;;;;;;;12.20;5.93;;;;;;;;;;5069600;28;20380;-86
2021/08/15 06:57:03;;;;;;;13.13;6.25;;;;;;;;;;5087952;28;20830;-85
2021/08/15 06:59:29;;;;;;;11.65;5.35;;;;;;;;;;5088345;28;20404;-85
2021/08/15 07:01:55;;;;;;;13.10;5.70;;;;;;;;;;5071167;28;20379;-85
2021/08/15 07:04:21;;;;;;;14.17;5.97;;;;;;;;;;5071072;28;20393;-86
2021/08/15 07:06:47;;;;;;;16.08;5.95;;;;;;;;;;5088210;28;20383;-84
2021/08/15 07:09:13;;;;;;;16.73;5.88;;;;;;;;;;5089520;28;20853;-85
2021/08/15 07:11:39;;;;;;;11.20;6.05;;;;;;;;;;5071209;28;20384;-84
2021/08/15 07:14:05;;;;;;;12.70;5.43;;;;;;;;;;5071325;28;20435;-84
2021/08/15 07:16:31;;;;;;;14.52;5.72;;;;;;;;;;5065816;28;20470;-85
2021/08/15 07:18:57;;;;;;;14.68;6.00;;;;;;;;;;5068454;28;20401;-87
2021/08/15 07:21:23;;;;;;;13.47;6.50;;;;;;;;;;5069894;28;20455;-85
2021/08/15 07:23:49;;;;;;;12.23;6.05;;;;;;;;;;5089271;28;20876;-84
2021/08/15 07:26:15;;;;;;;14.38;6.20;;;;;;;;;;5070803;28;20384;-85
2021/08/15 07:28:41;;;;;;;15.00;6.13;;;;;;;;;;5070563;28;20376;-83
2021/08/15 07:31:07;;;;;;;12.55;5.85;;;;;;;;;;5087172;28;20377;-83
2021/08/15 07:33:33;;;;;;;14.77;6.13;;;;;;;;;;5085850;28;20376;-86
2021/08/15 07:35:59;;;;;;;11.27;6.15;;;;;;;;;;5087448;28;20773;-84
2021/08/15 07:38:25;;;;;;;11.85;5.82;;;;;;;;;;5088241;28;20384;-83
2021/08/15 07:40:51;;;;;;;12.40;6.30;;;;;;;;;;5067306;28;21156;-84
2021/08/15 07:43:19;;;;;;;9.95;5.60;;;;;;;;;;5081647;28;20376;-84
2021/08/15 07:45:45;;;;;;;13.70;5.70;;;;;;;;;;5065326;28;20396;-84
2021/08/15 07:48:11;;;;;;;10.27;5.40;;;;;;;;;;5069548;28;20916;-85
2021/08/15 07:50:38;;;;;;;11.85;5.22;;;;;;;;;;5458456;22;21895;-84
2021/08/15 07:53:14;;;;;;;12.63;5.93;;;;;;;;;;5089052;28;20412;-87
2021/08/15 07:55:40;;;;;;;15.25;6.40;;;;;;;;;;5075083;28;20425;-85
2021/08/15 07:58:06;;;;;;;11.27;6.03;;;;;;;;;;5066965;28;20409;-85
2021/08/15 08:00:32;;;;;;;13.13;5.50;;;;;;;;;;5075716;28;20851;-86
2021/08/15 08:02:58;;;;;;;11.13;5.43;;;;;;;;;;5082006;28;20417;-86
2021/08/15 08:05:24;;;;;;;10.18;5.60;;;;;;;;;;5078068;28;20376;-85
2021/08/15 08:07:50;;;;;;;11.75;5.72;;;;;;;;;;5083658;28;20776;-85
2021/08/15 08:10:16;;;;;;;10.85;5.50;;;;;;;;;;5084437;28;20378;-86
2021/08/15 08:12:45;;;;;;;10.18;5.50;;;;;;;;;;5083571;28;20503;-85
2021/08/15 08:15:11;;;;;;;11.67;5.53;;;;;;;;;;5085271;28;20717;-84
2021/08/15 08:17:38;;;;;;;11.48;5.53;;;;;;;;;;5078100;28;20376;-83
2021/08/15 08:20:04;;;;;;;12.27;5.85;;;;;;;;;;5081972;28;20405;-85
2021/08/15 08:22:30;;;;;;;9.93;5.32;;;;;;;;;;5082691;28;20408;-85
2021/08/15 08:24:56;;;;;;;13.50;6.33;;;;;;;;;;5077231;28;22123;-86
2021/08/15 08:27:24;;;;;;;10.40;5.68;;;;;;;;;;5083735;28;20364;-85
2021/08/15 08:29:50;;;;;;;10.52;5.30;;;;;;;;;;5074111;28;20481;-84
2021/08/15 08:32:16;;;;;;;13.30;5.65;;;;;;;;;;5074550;28;20385;-86
2021/08/15 08:34:42;;;;;;;9.80;5.18;;;;;;;;;;5082114;28;20475;-85
2021/08/15 08:37:08;;;;;;;10.77;5.25;;;;;;;;;;5081113;28;20420;-85
2021/08/15 08:39:35;;;;;;;13.13;5.43;;;;;;;;;;5080645;28;20400;-85
2021/08/15 08:42:02;;;;;;;11.35;5.70;;;;;;;;;;5083889;28;20467;-86
2021/08/15 08:44:29;;;;;;;10.15;5.90;;;;;;;;;;5081908;28;20423;-86
2021/08/15 08:46:59;;;;;;;11.80;5.25;;;;;;;;;;5273736;22;20398;-86
2021/08/15 08:49:25;;;;;;;8.60;4.75;;;;;;;;;;5052085;28;20486;-85
2021/08/15 08:51:51;;;;;;;9.98;5.22;;;;;;;;;;5052977;28;20389;-85
2021/08/15 08:54:18;;;;;;;9.85;5.07;;;;;;;;;;5058997;28;20708;-84
2021/08/15 08:56:43;;;;;;;9.45;5.35;;;;;;;;;;5067661;28;20465;-84
2021/08/15 08:59:10;;;;;;;7.70;4.97;;;;;;;;;;5071156;28;20509;-85
2021/08/15 09:01:36;;;;;;;9.25;5.10;;;;;;;;;;5066822;28;20381;-85
2021/08/15 09:04:02;;;;;;;9.73;5.03;;;;;;;;;;5053265;28;20370;-83
2021/08/15 09:06:29;;;;;;;9.68;5.35;;;;;;;;;;5061866;28;20379;-85
2021/08/15 09:08:55;;;;;;;7.53;4.88;;;;;;;;;;5058335;28;20393;-85
2021/08/15 09:11:27;;;;;;;8.73;5.17;;;;;;;;;;5070804;28;20751;-87
2021/08/15 09:14:03;;;;;;;8.80;4.60;;;;;;;;;;5071661;28;20370;-85
2021/08/15 09:16:49;;;;;;;8.68;5.25;;;;;;;;;;5065601;28;20374;-85
2021/08/15 09:19:25;;;;;;;7.93;4.50;;;;;;;;;;5044109;28;20818;-84
2021/08/15 09:21:51;;;;;;;7.35;4.63;;;;;;;;;;5052327;28;20456;-87
2021/08/15 09:24:17;;;;;;;8.02;4.50;;;;;;;;;;5057623;28;20379;-86
2021/08/15 09:27:12;;;;;;;8.30;4.90;;;;;;;;;;5052110;28;20720;-86
2021/08/15 09:29:38;;;;;;;9.07;4.68;;;;;;;;;;5038919;28;20731;-85
2021/08/15 09:32:04;;;;;;;7.70;4.60;;;;;;;;;;5052513;28;20370;-85
2021/08/15 09:34:30;;;;;;;6.78;4.72;;;;;;;;;;5069514;28;20385;-88
2021/08/15 09:36:56;;;;;;;8.73;4.63;;;;;;;;;;5069820;28;20376;-86
2021/08/15 09:39:33;;;;;;;8.85;4.63;;;;;;;;;;5069202;28;20409;-86
2021/08/15 09:42:00;;;;;;;6.90;4.15;;;;;;;;;;5069785;28;20374;-85
2021/08/15 09:44:26;;;;;;;8.55;4.47;;;;;;;;;;5051682;28;20387;-85
2021/08/15 09:46:56;;;;;;;5.97;4.32;;;;;;;;;;5068336;28;20390;-85
2021/08/15 09:49:22;;;;;;;6.63;4.05;;;;;;;;;;5069687;28;20381;-85
2021/08/15 09:51:48;;;;;;;6.78;4.22;;;;;;;;;;5059347;28;20732;-85
2021/08/15 09:54:17;;;;;;;7.13;4.47;;;;;;;;;;5051938;28;20420;-85
2021/08/15 09:56:43;;;;;;;5.88;4.10;;;;;;;;;;5069016;28;20386;-87
2021/08/15 09:59:10;;;;;;;6.43;4.10;;;;;;;;;;5069716;28;20418;-85
2021/08/15 10:01:36;;;;;;;8.00;4.57;;;;;;;;;;5051050;28;20386;-84
2021/08/15 10:04:03;;;;;;;7.63;3.78;;;;;;;;;;5068880;28;20437;-84
2021/08/15 10:06:29;;;;;;;6.60;4.05;;;;;;;;;;5069698;28;20366;-84
2021/08/15 10:08:57;;;;;;;6.63;3.97;;;;;;;;;;5054240;28;20374;-83
2021/08/15 10:11:23;;;;;;;7.63;4.45;;;;;;;;;;5051368;28;20705;-84
2021/08/15 10:13:49;;;;;;;8.37;4.60;;;;;;;;;;5062111;28;20389;-86
2021/08/15 10:16:15;;;;;;;9.00;4.68;;;;;;;;;;5068077;28;20374;-85
2021/08/15 10:18:44;;;;;;;6.20;4.20;;;;;;;;;;5068479;28;20490;-85
2021/08/15 10:21:15;;;;;;;7.97;4.15;;;;;;;;;;5068616;28;20440;-84
2021/08/15 10:23:42;;;;;;;9.52;4.95;;;;;;;;;;5058738;28;20378;-88
2021/08/15 10:26:26;;;;;;;10.98;5.15;;;;;;;;;;5065494;28;20378;-84
2021/08/15 10:28:53;;;;;;;8.40;4.85;;;;;;;;;;5064525;28;20884;-85
2021/08/15 10:31:21;;;;;;;9.48;4.82;;;;;;;;;;5046892;28;20486;-86
2021/08/15 10:33:57;;;;;;;7.72;4.57;;;;;;;;;;5048180;28;20410;-83
2021/08/15 10:36:33;;;;;;;8.00;4.85;;;;;;;;;;5049325;28;20382;-86
2021/08/15 10:39:00;;;;;;;10.27;4.80;;;;;;;;;;5064151;28;20468;-85
2021/08/15 10:41:45;;;;;;;7.70;4.72;;;;;;;;;;5061131;28;20396;-85
2021/08/15 10:44:13;;;;;;;7.43;4.80;;;;;;;;;;5058295;28;20380;-84
2021/08/15 10:46:59;;;;;;;7.93;4.88;;;;;;;;;;5067071;28;20431;-85
2021/08/15 10:49:44;;;;;;;8.70;4.70;;;;;;;;;;5067043;28;20377;-85
2021/08/15 10:52:25;;;;;;;9.32;5.13;;;;;;;;;;5049187;28;20381;-84
2021/08/15 10:55:02;;;;;;;8.65;5.03;;;;;;;;;;5065482;28;20996;-85
2021/08/15 10:57:48;;;;;;;8.35;5.57;;;;;;;;;;5065650;28;20374;-85
2021/08/15 11:00:29;;;;;;;9.48;5.43;;;;;;;;;;5067785;28;20429;-85
2021/08/15 11:02:56;;;;;;;12.50;5.55;;;;;;;;;;5067750;28;20396;-87
2021/08/15 11:05:38;;;;;;;10.30;5.68;;;;;;;;;;5068010;28;20379;-86
2021/08/15 11:08:05;;;;;;;9.63;5.47;;;;;;;;;;5067999;28;20382;-86
2021/08/15 11:10:50;;;;;;;11.13;5.43;;;;;;;;;;5067858;28;20443;-87
2021/08/15 11:13:17;;;;;;;9.73;5.93;;;;;;;;;;5069165;28;20397;-85
2021/08/15 11:15:43;;;;;;;8.88;4.93;;;;;;;;;;5067751;28;20380;-85
2021/08/15 11:18:12;;;;;;;10.77;5.00;;;;;;;;;;5061322;28;20394;-87
2021/08/15 11:20:47;;;;;;;7.73;4.70;;;;;;;;;;5036042;28;20407;-85
2021/08/15 11:23:17;;;;;;;7.60;4.72;;;;;;;;;;5031213;28;20376;-87
2021/08/15 11:25:44;;;;;;;9.85;5.03;;;;;;;;;;5048887;28;20732;-87
2021/08/15 11:28:10;;;;;;;7.75;5.10;;;;;;;;;;5048624;28;20377;-86
2021/08/15 11:30:36;;;;;;;9.88;5.10;;;;;;;;;;5030775;28;20364;-88
2021/08/15 11:33:07;;;;;;;12.43;5.40;;;;;;;;;;5031062;28;20780;-84
2021/08/15 11:35:34;;;;;;;8.73;5.75;;;;;;;;;;5048875;28;20390;-85
2021/08/15 11:38:00;;;;;;;9.90;5.33;;;;;;;;;;5034846;28;20376;-86
2021/08/15 11:40:28;;;;;;;8.17;4.87;;;;;;;;;;5064197;28;20402;-85
2021/08/15 11:43:10;;;;;;;8.75;4.95;;;;;;;;;;5048248;28;20383;-86
2021/08/15 11:45:37;;;;;;;10.13;5.40;;;;;;;;;;5031048;28;20382;-86
2021/08/15 11:48:13;;;;;;;7.53;5.00;;;;;;;;;;5030788;28;20387;-86
2021/08/15 11:50:41;;;;;;;9.05;5.43;;;;;;;;;;5030892;28;20364;-86
2021/08/15 11:53:28;;;;;;;9.15;4.93;;;;;;;;;;5030664;28;20380;-86
2021/08/15 11:55:55;;;;;;;7.35;4.65;;;;;;;;;;5030915;28;20857;-85
2021/08/15 11:58:21;;;;;;;7.85;4.72;;;;;;;;;;5030841;28;20372;-87
2021/08/15 12:00:48;;;;;;;9.32;5.05;;;;;;;;;;5048946;28;20483;-84
2021/08/15 12:03:15;;;;;;;7.28;4.78;;;;;;;;;;5030600;28;20376;-86
2021/08/15 12:05:45;;;;;;;7.95;5.22;;;;;;;;;;5030552;28;20383;-85
2021/08/15 12:08:12;;;;;;;8.57;5.18;;;;;;;;;;5030136;28;20372;-87
2021/08/15 12:10:47;;;;;;;8.50;5.30;;;;;;;;;;5048051;28;20425;-86
2021/08/15 12:13:13;;;;;;;10.32;5.63;;;;;;;;;;5030436;28;20992;-85
2021/08/15 12:15:40;;;;;;;10.23;5.60;;;;;;;;;;5030188;28;20557;-86
2021/08/15 12:18:06;;;;;;;10.53;5.53;;;;;;;;;;5030138;28;20475;-87
2021/08/15 12:20:41;;;;;;;12.90;5.80;;;;;;;;;;5047560;28;20825;-86
2021/08/15 12:23:07;;;;;;;8.27;5.45;;;;;;;;;;5030529;28;20403;-86
2021/08/15 12:25:33;;;;;;;9.00;5.63;;;;;;;;;;5048485;28;20470;-85
2021/08/15 12:28:15;;;;;;;8.33;4.80;;;;;;;;;;5030132;28;20376;-85
2021/08/15 12:30:42;;;;;;;8.73;4.95;;;;;;;;;;5029770;28;20380;-86
2021/08/15 12:33:33;;;;;;;8.57;5.43;;;;;;;;;;5048446;28;20364;-87
2021/08/15 12:36:18;;;;;;;9.10;5.47;;;;;;;;;;5048321;28;20951;-85
2021/08/15 12:38:44;;;;;;;8.68;5.22;;;;;;;;;;5047736;28;20364;-88
2021/08/15 12:41:23;;;;;;;10.93;5.45;;;;;;;;;;5030245;28;20401;-86
2021/08/15 12:44:12;;;;;;;10.25;5.72;;;;;;;;;;5030349;28;20954;-85
2021/08/15 12:46:38;;;;;;;9.55;5.50;;;;;;;;;;5048805;28;20398;-86
2021/08/15 12:49:20;;;;;;;9.98;5.63;;;;;;;;;;5049005;28;20386;-86
2021/08/15 12:51:47;;;;;;;10.70;5.70;;;;;;;;;;5035363;28;20910;-87
2021/08/15 12:54:13;;;;;;;8.43;5.47;;;;;;;;;;5061074;28;20429;-86
2021/08/15 12:56:39;;;;;;;8.40;5.43;;;;;;;;;;5062242;28;20445;-84
2021/08/15 12:59:05;;;;;;;9.48;5.38;;;;;;;;;;5042480;28;20396;-86
2021/08/15 13:01:31;;;;;;;9.50;5.20;;;;;;;;;;5071399;28;20831;-86
2021/08/15 13:03:59;;;;;;;7.72;5.20;;;;;;;;;;5053143;28;20512;-87
2021/08/15 13:06:26;;;;;;;10.85;5.50;;;;;;;;;;5045924;28;20375;-85
2021/08/15 13:08:55;;;;;;;11.55;5.93;;;;;;;;;;5069071;28;20368;-85
2021/08/15 13:11:21;;;;;;;8.57;5.78;;;;;;;;;;5067582;28;20506;-87
2021/08/15 13:13:47;;;;;;;8.80;4.97;;;;;;;;;;5044233;28;20466;-85
2021/08/15 13:16:16;;;;;;;11.98;5.32;;;;;;;;;;5062308;28;20378;-85
2021/08/15 13:18:42;;;;;;;9.88;5.30;;;;;;;;;;5052509;28;20397;-89
2021/08/15 13:21:08;;;;;;;10.73;5.82;;;;;;;;;;5052341;28;20842;-85
2021/08/15 13:23:34;;;;;;;10.73;5.43;;;;;;;;;;5052899;28;20379;-86
2021/08/15 13:26:01;;;;;;;9.38;5.57;;;;;;;;;;5064488;28;20788;-86
2021/08/15 13:28:27;;;;;;;8.30;5.53;;;;;;;;;;5060602;28;20425;-85
2021/08/15 13:30:53;;;;;;;10.55;5.45;;;;;;;;;;5037985;28;20773;-88
2021/08/15 13:33:19;;;;;;;10.27;5.50;;;;;;;;;;5033110;28;20372;-85
2021/08/15 13:35:45;;;;;;;9.20;5.60;;;;;;;;;;5032783;28;20479;-86
2021/08/15 13:38:14;;;;;;;10.00;5.78;;;;;;;;;;5039030;28;20378;-87
2021/08/15 13:40:40;;;;;;;9.55;5.45;;;;;;;;;;5052441;28;20571;-86
2021/08/15 13:43:06;;;;;;;9.52;6.15;;;;;;;;;;5070198;28;20906;-86
2021/08/15 13:45:33;;;;;;;8.90;5.30;;;;;;;;;;5051494;28;20823;-86
2021/08/15 13:47:59;;;;;;;14.60;5.80;;;;;;;;;;5069195;28;20390;-88
2021/08/15 13:50:25;;;;;;;9.82;5.72;;;;;;;;;;5066915;28;20436;-85
2021/08/15 13:52:51;;;;;;;10.53;5.50;;;;;;;;;;5069788;28;20370;-87
2021/08/15 13:55:18;;;;;;;10.07;5.75;;;;;;;;;;5069682;28;20457;-85
2021/08/15 13:57:45;;;;;;;9.55;5.18;;;;;;;;;;5068516;28;20970;-85
2021/08/15 14:00:11;;;;;;;10.93;5.65;;;;;;;;;;5067911;28;20906;-85
2021/08/15 14:02:37;;;;;;;8.00;4.97;;;;;;;;;;5068853;28;20382;-87
2021/08/15 14:05:04;;;;;;;8.75;4.57;;;;;;;;;;5069374;28;20412;-85
2021/08/15 14:07:30;;;;;;;7.22;3.90;;;;;;;;;;5069382;28;20444;-86
2021/08/15 14:09:56;;;;;;;7.65;4.25;;;;;;;;;;5050865;28;20743;-85
2021/08/15 14:12:22;;;;;;;8.88;4.43;;;;;;;;;;5060101;28;20367;-87
2021/08/15 14:14:49;;;;;;;5.80;3.83;;;;;;;;;;5050824;28;20951;-85
2021/08/15 14:17:16;;;;;;;7.13;4.07;;;;;;;;;;5068777;28;20374;-84
2021/08/15 14:19:43;;;;;;;6.90;4.38;;;;;;;;;;5068571;28;20882;-86
2021/08/15 14:22:09;;;;;;;7.80;4.53;;;;;;;;;;5059840;28;20370;-85
2021/08/15 14:24:35;;;;;;;7.82;4.10;;;;;;;;;;5068452;28;20378;-86
2021/08/15 14:27:01;;;;;;;5.22;4.22;;;;;;;;;;5051846;28;20401;-86
2021/08/15 14:29:27;;;;;;;6.18;4.30;;;;;;;;;;5051189;28;20910;-86
2021/08/15 14:31:53;;;;;;;7.97;4.78;;;;;;;;;;5068612;28;20374;-86
2021/08/15 14:34:19;;;;;;;8.70;4.20;;;;;;;;;;5050982;28;20378;-85
2021/08/15 14:36:48;;;;;;;8.98;3.90;;;;;;;;;;5069348;28;20506;-85
2021/08/15 14:39:16;;;;;;;6.95;4.22;;;;;;;;;;5048621;28;20501;-84